createdAt,value
2018-09-14T00:00:35.959Z,2.30
2018-09-14T00:05:45.828Z,2.53
2018-09-14T00:10:55.864Z,2.20
2018-09-14T00:16:05.900Z,2.10
2018-09-14T00:21:15.927Z,1.97
2018-09-14T00:26:26.247Z,2.13
2018-09-14T00:31:36.316Z,2.73
2018-09-14T00:36:46.260Z,2.47
2018-09-14T00:41:56.332Z,3.80
2018-09-14T00:47:06.351Z,2.73
2018-09-14T00:52:16.336Z,2.13
2018-09-14T00:57:26.187Z,2.03
2018-09-14T01:02:36.345Z,2.10
2018-09-14T01:07:46.229Z,2.10
2018-09-14T01:12:56.244Z,2.40
2018-09-14T01:18:06.240Z,2.23
2018-09-14T01:23:16.100Z,2.60
2018-09-14T01:28:26.120Z,2.23
2018-09-14T01:33:36.200Z,2.43
2018-09-14T01:38:46.136Z,2.50
2018-09-14T01:43:56.143Z,2.60
2018-09-14T01:49:06.515Z,2.43
2018-09-14T01:54:16.505Z,2.67
2018-09-14T01:59:26.628Z,2.20
2018-09-14T02:04:36.559Z,3.00
2018-09-14T02:09:46.624Z,2.77
2018-09-14T02:14:56.603Z,3.00
2018-09-14T02:20:06.513Z,2.77
2018-09-14T02:25:16.598Z,2.80
2018-09-14T02:30:26.610Z,3.20
2018-09-14T02:35:36.616Z,2.53
2018-09-14T02:40:46.574Z,2.40
2018-09-14T02:45:56.489Z,2.93
2018-09-14T02:51:06.559Z,2.33
2018-09-14T02:56:16.418Z,2.50
2018-09-14T03:01:26.431Z,2.73
2018-09-14T03:06:36.403Z,3.03
2018-09-14T03:11:46.404Z,3.20
2018-09-14T03:16:56.472Z,2.90
2018-09-14T03:22:06.531Z,2.80
2018-09-14T03:27:16.557Z,3.60
2018-09-14T03:32:26.637Z,3.23
2018-09-14T03:37:36.670Z,3.23
2018-09-14T03:42:46.580Z,3.07
2018-09-14T03:47:56.474Z,3.27
2018-09-14T03:53:06.364Z,3.07
2018-09-14T03:58:16.360Z,4.80
2018-09-14T04:03:26.484Z,3.33
2018-09-14T04:08:36.434Z,3.00
2018-09-14T04:13:47.252Z,3.60
2018-09-14T04:19:03.919Z,3.00
2018-09-14T04:24:13.867Z,6.30
2018-09-14T04:29:23.732Z,6.73
2018-09-14T04:34:33.832Z,7.43
2018-09-14T04:39:43.932Z,4.87
2018-09-14T04:44:53.884Z,3.33
2018-09-14T04:50:03.748Z,7.50
2018-09-14T04:55:14.075Z,5.23
2018-09-14T05:00:24.048Z,7.67
2018-09-14T05:05:34.125Z,3.87
2018-09-14T05:10:44.156Z,3.70
2018-09-14T05:15:54.293Z,3.60
2018-09-14T05:21:04.236Z,3.87
2018-09-14T05:26:14.232Z,3.37
2018-09-14T05:31:24.300Z,6.23
2018-09-14T05:36:34.209Z,6.87
2018-09-14T05:41:44.483Z,5.80
2018-09-14T05:46:54.384Z,10.30
2018-09-14T05:52:04.455Z,10.47
2018-09-14T05:57:14.632Z,10.53
2018-09-14T06:02:24.631Z,4.50
2018-09-14T06:07:34.952Z,7.60
2018-09-14T06:12:45.036Z,10.50
2018-09-14T06:17:55.026Z,10.37
2018-09-14T06:23:06.037Z,11.80
2018-09-14T06:28:16.020Z,13.00
2018-09-14T06:33:26.072Z,13.47
2018-09-14T06:38:36.145Z,14.93
2018-09-14T06:43:46.215Z,15.40
2018-09-14T06:48:56.203Z,15.27
2018-09-14T06:54:06.425Z,16.93
2018-09-14T06:59:16.277Z,15.13
2018-09-14T07:04:26.289Z,15.77
2018-09-14T07:09:36.336Z,14.73
2018-09-14T07:14:46.251Z,16.77
2018-09-14T07:19:56.200Z,18.90
2018-09-14T07:25:06.104Z,12.17
2018-09-14T07:30:16.267Z,16.70
2018-09-14T07:35:26.227Z,20.10
2018-09-14T07:40:36.113Z,13.40
2018-09-14T07:45:46.244Z,20.73
2018-09-14T07:50:56.112Z,15.13
2018-09-14T07:56:06.195Z,18.43
2018-09-14T08:01:16.170Z,19.20
2018-09-14T08:06:26.009Z,17.87
2018-09-14T08:11:36.058Z,18.97
2018-09-14T08:16:46.007Z,11.90
2018-09-14T08:21:55.949Z,17.97
2018-09-14T08:27:05.962Z,12.07
2018-09-14T08:32:15.977Z,9.77
2018-09-14T08:37:25.975Z,18.50
2018-09-14T08:42:36.263Z,14.43
2018-09-14T08:47:46.171Z,10.83
2018-09-14T08:52:56.197Z,10.97
2018-09-14T08:58:06.261Z,13.93
2018-09-14T09:03:16.339Z,9.40
2018-09-14T09:08:26.347Z,10.67
2018-09-14T09:13:36.392Z,15.43
2018-09-14T09:18:46.444Z,15.23
2018-09-14T09:23:56.468Z,10.63
2018-09-14T09:29:06.635Z,9.33
2018-09-14T09:34:17.388Z,12.87
2018-09-14T09:39:27.337Z,17.43
2018-09-14T09:44:37.381Z,9.73
2018-09-14T09:49:47.299Z,12.13
2018-09-14T09:54:57.208Z,15.00
2018-09-14T10:00:11.380Z,16.53
2018-09-14T10:05:26.731Z,12.43
2018-09-14T10:10:36.732Z,7.93
2018-09-14T10:15:46.801Z,8.43
2018-09-14T10:20:56.860Z,9.77
2018-09-14T10:26:06.948Z,13.83
2018-09-14T10:31:16.962Z,12.57
2018-09-14T10:36:26.968Z,6.83
2018-09-14T10:41:36.956Z,9.20
2018-09-14T10:46:46.866Z,8.73
2018-09-14T10:51:56.868Z,5.90
2018-09-14T10:57:06.769Z,7.20
2018-09-14T11:02:16.756Z,6.13
2018-09-14T11:07:26.844Z,5.83
2018-09-14T11:12:36.813Z,4.50
2018-09-14T11:17:46.780Z,4.33
2018-09-14T11:22:56.816Z,6.00
2018-09-14T11:28:06.844Z,4.43
2018-09-14T11:33:16.751Z,4.30
2018-09-14T11:38:26.751Z,2.80
2018-09-14T11:43:36.788Z,5.60
2018-09-14T11:48:46.974Z,5.90
2018-09-14T11:53:57.136Z,6.00
2018-09-14T11:59:07.215Z,5.47
2018-09-14T12:04:17.067Z,6.00
2018-09-14T12:09:27.283Z,7.37
2018-09-14T12:14:37.231Z,6.07
2018-09-14T12:19:47.063Z,4.03
2018-09-14T12:24:57.048Z,5.13
2018-09-14T12:30:06.924Z,6.87
2018-09-14T12:35:16.955Z,6.97
2018-09-14T12:40:26.870Z,2.83
2018-09-14T12:45:36.760Z,5.10
2018-09-14T12:50:47.059Z,7.07
2018-09-14T12:55:56.968Z,5.43
2018-09-14T13:01:06.920Z,7.03
2018-09-14T13:06:16.883Z,4.20
2018-09-14T13:11:26.927Z,3.20
2018-09-14T13:16:37.084Z,6.23
2018-09-14T13:21:47.180Z,3.93
2018-09-14T13:26:57.094Z,4.20
2018-09-14T13:32:07.252Z,4.10
2018-09-14T13:37:17.340Z,6.03
2018-09-14T13:42:27.453Z,4.20
2018-09-14T13:47:37.411Z,3.60
2018-09-14T13:52:47.551Z,4.90
2018-09-14T13:57:57.448Z,5.43
2018-09-14T14:03:07.532Z,4.43
2018-09-14T14:08:17.587Z,5.60
2018-09-14T14:13:27.598Z,2.47
2018-09-14T14:18:37.741Z,3.87
2018-09-14T14:23:47.817Z,3.73
2018-09-14T14:28:57.744Z,5.60
2018-09-14T14:34:07.755Z,5.30
2018-09-14T14:39:17.772Z,3.50
2018-09-14T14:44:27.780Z,3.77
2018-09-14T14:49:37.884Z,3.07
2018-09-14T14:54:47.820Z,3.80
2018-09-14T14:59:57.736Z,2.40
2018-09-14T15:05:07.625Z,2.87
2018-09-14T15:10:17.672Z,2.20
2018-09-14T15:15:27.736Z,2.73
2018-09-14T15:20:37.640Z,4.40
2018-09-14T15:25:47.552Z,2.77
2018-09-14T15:30:57.738Z,4.73
2018-09-14T15:36:07.644Z,5.60
2018-09-14T15:41:17.612Z,5.57
2018-09-14T15:46:27.937Z,4.33
2018-09-14T15:51:37.934Z,4.03
2018-09-14T15:56:47.841Z,3.80
2018-09-14T16:01:57.830Z,2.70
2018-09-14T16:07:07.708Z,3.87
2018-09-14T16:12:17.760Z,3.60
2018-09-14T16:17:27.787Z,3.57
2018-09-14T16:22:37.700Z,4.03
2018-09-14T16:27:47.644Z,2.13
2018-09-14T16:32:57.668Z,2.87
2018-09-14T16:38:07.720Z,2.13
2018-09-14T16:43:17.751Z,3.87
2018-09-14T16:48:27.637Z,3.37
2018-09-14T16:53:37.684Z,2.90
2018-09-14T16:58:47.812Z,3.20
2018-09-14T17:03:57.764Z,2.87
2018-09-14T17:09:08.516Z,2.60
2018-09-14T17:14:18.718Z,2.17
2018-09-14T17:19:28.752Z,3.57
2018-09-14T17:24:38.673Z,1.80
2018-09-14T17:29:48.813Z,2.97
2018-09-14T17:34:58.832Z,2.77
2018-09-14T17:40:08.870Z,1.83
2018-09-14T17:45:18.810Z,2.70
2018-09-14T17:50:28.746Z,2.47
2018-09-14T17:55:38.645Z,2.93
2018-09-14T18:00:48.657Z,3.10
2018-09-14T18:05:58.564Z,2.50
2018-09-14T18:11:08.472Z,2.90
2018-09-14T18:16:18.516Z,2.90
2018-09-14T18:21:28.566Z,3.03
2018-09-14T18:26:38.496Z,2.17
2018-09-14T18:31:48.540Z,2.20
2018-09-14T18:36:59.140Z,2.10
2018-09-14T18:42:09.084Z,2.60
2018-09-14T18:47:19.486Z,2.70
2018-09-14T18:52:29.589Z,2.70
2018-09-14T18:57:39.437Z,4.00
2018-09-14T19:02:49.300Z,4.87
2018-09-14T19:07:59.407Z,2.83
2018-09-14T19:13:09.316Z,3.10
2018-09-14T19:18:19.400Z,2.50
2018-09-14T19:23:29.317Z,4.50
2018-09-14T19:28:39.397Z,2.30
2018-09-14T19:33:49.479Z,3.90
2018-09-14T19:38:59.620Z,4.50
2018-09-14T19:44:09.768Z,2.90
2018-09-14T19:49:19.801Z,2.50
2018-09-14T19:54:29.890Z,2.63
2018-09-14T19:59:39.954Z,2.90
2018-09-14T20:04:50.101Z,3.17
2018-09-14T20:10:00.221Z,3.40
2018-09-14T20:15:10.525Z,2.87
2018-09-14T20:20:21.326Z,2.63
2018-09-14T20:25:31.335Z,4.67
2018-09-14T20:30:41.357Z,3.43
2018-09-14T20:35:51.352Z,4.97
2018-09-14T20:41:01.529Z,5.60
2018-09-14T20:46:11.720Z,3.13
2018-09-14T20:51:21.940Z,5.43
2018-09-14T20:56:31.991Z,3.37
2018-09-14T21:01:42.044Z,5.20
2018-09-14T21:06:51.947Z,4.80
2018-09-14T21:12:02.000Z,5.33
2018-09-14T21:17:12.058Z,4.60
2018-09-14T21:22:21.947Z,5.20
2018-09-14T21:27:32.004Z,6.57
2018-09-14T21:32:41.915Z,6.65
2018-09-14T21:37:51.932Z,6.70
2018-09-14T21:43:01.975Z,5.13
2018-09-14T21:48:11.889Z,5.17
2018-09-14T21:53:21.926Z,4.23
2018-09-14T21:58:31.791Z,3.73
2018-09-14T22:03:42.748Z,3.60
2018-09-14T22:08:52.931Z,3.97
2018-09-14T22:14:03.004Z,3.43
2018-09-14T22:19:13.398Z,3.40
2018-09-14T22:24:23.670Z,4.53
2018-09-14T22:29:33.552Z,4.67
2018-09-14T22:34:43.910Z,3.80
2018-09-14T22:39:53.787Z,2.80
2018-09-14T22:45:03.839Z,5.20
2018-09-14T22:50:13.935Z,4.47
2018-09-14T22:55:23.852Z,4.20
2018-09-14T23:00:39.415Z,2.93
2018-09-14T23:05:49.479Z,3.10
2018-09-14T23:10:59.368Z,2.77
2018-09-14T23:16:09.400Z,3.87
2018-09-14T23:21:19.519Z,2.80
2018-09-14T23:26:29.877Z,2.40
2018-09-14T23:31:39.841Z,3.43
2018-09-14T23:36:49.764Z,4.67
2018-09-14T23:41:59.751Z,3.10
2018-09-14T23:47:09.912Z,2.83
2018-09-14T23:52:20.052Z,5.10
2018-09-14T23:57:30.091Z,2.37
